sensor_id;sensor_type;location;lat;lon;timestamp;P1;durP1;ratioP1;P2;durP2;ratioP2
26303;SDS011;70693;48.680;8.890;2024-02-23T00:02:21;0.60;;;0.40;;
26303;SDS011;70693;48.680;8.890;2024-02-23T00:04:46;0.77;;;0.35;;
26303;SDS011;70693;48.680;8.890;2024-02-23T00:07:12;0.40;;;0.20;;
26303;SDS011;70693;48.680;8.890;2024-02-23T00:09:37;0.30;;;0.20;;
26303;SDS011;70693;48.680;8.890;2024-02-23T00:12:03;0.30;;;0.25;;
26303;SDS011;70693;48.680;8.890;2024-02-23T00:14:30;0.45;;;0.30;;
26303;SDS011;70693;48.680;8.890;2024-02-23T00:17:01;0.30;;;0.20;;
26303;SDS011;70693;48.680;8.890;2024-02-23T00:19:27;0.60;;;0.28;;
26303;SDS011;70693;48.680;8.890;2024-02-23T00:21:52;0.10;;;0.10;;
26303;SDS011;70693;48.680;8.890;2024-02-23T00:24:18;0.20;;;0.20;;
26303;SDS011;70693;48.680;8.890;2024-02-23T00:26:45;0.40;;;0.30;;
26303;SDS011;70693;48.680;8.890;2024-02-23T00:29:11;0.25;;;0.20;;
26303;SDS011;70693;48.680;8.890;2024-02-23T00:31:38;0.30;;;0.20;;
26303;SDS011;70693;48.680;8.890;2024-02-23T00:34:06;0.63;;;0.25;;
26303;SDS011;70693;48.680;8.890;2024-02-23T00:36:35;1.88;;;0.35;;
26303;SDS011;70693;48.680;8.890;2024-02-23T00:39:03;0.28;;;0.15;;
26303;SDS011;70693;48.680;8.890;2024-02-23T00:41:29;0.82;;;0.22;;
26303;SDS011;70693;48.680;8.890;2024-02-23T00:43:54;0.30;;;0.20;;
26303;SDS011;70693;48.680;8.890;2024-02-23T00:46:20;0.47;;;0.20;;
26303;SDS011;70693;48.680;8.890;2024-02-23T00:48:46;0.77;;;0.20;;
26303;SDS011;70693;48.680;8.890;2024-02-23T00:51:12;0.95;;;0.30;;
26303;SDS011;70693;48.680;8.890;2024-02-23T00:53:37;0.30;;;0.20;;
26303;SDS011;70693;48.680;8.890;2024-02-23T00:56:03;0.47;;;0.20;;
26303;SDS011;70693;48.680;8.890;2024-02-23T00:58:29;1.67;;;0.30;;
26303;SDS011;70693;48.680;8.890;2024-02-23T01:00:55;1.20;;;0.45;;
26303;SDS011;70693;48.680;8.890;2024-02-23T01:03:20;1.10;;;0.47;;
26303;SDS011;70693;48.680;8.890;2024-02-23T01:05:46;1.25;;;0.30;;
26303;SDS011;70693;48.680;8.890;2024-02-23T01:08:12;0.65;;;0.20;;
26303;SDS011;70693;48.680;8.890;2024-02-23T01:10:37;0.52;;;0.30;;
26303;SDS011;70693;48.680;8.890;2024-02-23T01:13:03;0.40;;;0.30;;
26303;SDS011;70693;48.680;8.890;2024-02-23T01:15:30;1.25;;;0.20;;
26303;SDS011;70693;48.680;8.890;2024-02-23T01:17:55;0.40;;;0.30;;
26303;SDS011;70693;48.680;8.890;2024-02-23T01:20:21;0.40;;;0.30;;
26303;SDS011;70693;48.680;8.890;2024-02-23T01:22:47;1.20;;;0.30;;
26303;SDS011;70693;48.680;8.890;2024-02-23T01:25:12;1.20;;;0.40;;
26303;SDS011;70693;48.680;8.890;2024-02-23T01:27:40;1.60;;;0.20;;
26303;SDS011;70693;48.680;8.890;2024-02-23T01:30:06;0.90;;;0.30;;
26303;SDS011;70693;48.680;8.890;2024-02-23T01:32:32;0.50;;;0.25;;
26303;SDS011;70693;48.680;8.890;2024-02-23T01:34:58;0.88;;;0.20;;
26303;SDS011;70693;48.680;8.890;2024-02-23T01:37:24;1.17;;;0.40;;
26303;SDS011;70693;48.680;8.890;2024-02-23T01:39:49;0.22;;;0.20;;
26303;SDS011;70693;48.680;8.890;2024-02-23T01:42:15;0.80;;;0.20;;
26303;SDS011;70693;48.680;8.890;2024-02-23T01:44:40;1.50;;;0.40;;
26303;SDS011;70693;48.680;8.890;2024-02-23T01:47:06;0.80;;;0.20;;
26303;SDS011;70693;48.680;8.890;2024-02-23T01:49:32;0.85;;;0.40;;
26303;SDS011;70693;48.680;8.890;2024-02-23T01:52:00;0.65;;;0.30;;
26303;SDS011;70693;48.680;8.890;2024-02-23T01:54:27;1.65;;;0.40;;
26303;SDS011;70693;48.680;8.890;2024-02-23T01:56:54;1.10;;;0.30;;
26303;SDS011;70693;48.680;8.890;2024-02-23T01:59:21;0.60;;;0.22;;
26303;SDS011;70693;48.680;8.890;2024-02-23T02:01:48;1.27;;;0.38;;
26303;SDS011;70693;48.680;8.890;2024-02-23T02:04:14;1.27;;;0.20;;
26303;SDS011;70693;48.680;8.890;2024-02-23T02:06:39;3.30;;;0.40;;
26303;SDS011;70693;48.680;8.890;2024-02-23T02:09:05;1.20;;;0.40;;
26303;SDS011;70693;48.680;8.890;2024-02-23T02:11:31;1.27;;;0.40;;
26303;SDS011;70693;48.680;8.890;2024-02-23T02:13:56;0.22;;;0.20;;
26303;SDS011;70693;48.680;8.890;2024-02-23T02:16:22;1.15;;;0.32;;
26303;SDS011;70693;48.680;8.890;2024-02-23T02:18:48;0.55;;;0.30;;
26303;SDS011;70693;48.680;8.890;2024-02-23T02:21:13;1.02;;;0.40;;
26303;SDS011;70693;48.680;8.890;2024-02-23T02:23:39;1.55;;;0.47;;
26303;SDS011;70693;48.680;8.890;2024-02-23T02:26:05;0.88;;;0.30;;
26303;SDS011;70693;48.680;8.890;2024-02-23T02:28:30;1.75;;;0.40;;
26303;SDS011;70693;48.680;8.890;2024-02-23T02:30:56;1.33;;;0.40;;
26303;SDS011;70693;48.680;8.890;2024-02-23T02:33:22;2.15;;;0.40;;
26303;SDS011;70693;48.680;8.890;2024-02-23T02:35:48;0.80;;;0.40;;
26303;SDS011;70693;48.680;8.890;2024-02-23T02:38:14;0.73;;;0.30;;
26303;SDS011;70693;48.680;8.890;2024-02-23T02:40:41;0.93;;;0.30;;
26303;SDS011;70693;48.680;8.890;2024-02-23T02:43:06;0.95;;;0.30;;
26303;SDS011;70693;48.680;8.890;2024-02-23T02:45:32;1.02;;;0.30;;
26303;SDS011;70693;48.680;8.890;2024-02-23T02:47:59;1.45;;;0.40;;
26303;SDS011;70693;48.680;8.890;2024-02-23T02:50:26;0.73;;;0.20;;
26303;SDS011;70693;48.680;8.890;2024-02-23T02:52:52;0.52;;;0.45;;
26303;SDS011;70693;48.680;8.890;2024-02-23T02:55:17;0.30;;;0.10;;
26303;SDS011;70693;48.680;8.890;2024-02-23T02:57:44;1.92;;;0.40;;
26303;SDS011;70693;48.680;8.890;2024-02-23T03:00:10;1.60;;;0.30;;
26303;SDS011;70693;48.680;8.890;2024-02-23T03:02:36;1.02;;;0.38;;
26303;SDS011;70693;48.680;8.890;2024-02-23T03:05:02;0.68;;;0.47;;
26303;SDS011;70693;48.680;8.890;2024-02-23T03:07:28;1.20;;;0.38;;
26303;SDS011;70693;48.680;8.890;2024-02-23T03:09:53;0.38;;;0.13;;
26303;SDS011;70693;48.680;8.890;2024-02-23T03:12:19;1.30;;;0.20;;
26303;SDS011;70693;48.680;8.890;2024-02-23T03:14:45;0.55;;;0.30;;
26303;SDS011;70693;48.680;8.890;2024-02-23T03:17:11;1.20;;;0.38;;
26303;SDS011;70693;48.680;8.890;2024-02-23T03:19:37;1.13;;;0.40;;
26303;SDS011;70693;48.680;8.890;2024-02-23T03:22:03;1.08;;;0.40;;
26303;SDS011;70693;48.680;8.890;2024-02-23T03:24:29;1.55;;;0.43;;
26303;SDS011;70693;48.680;8.890;2024-02-23T03:26:55;0.73;;;0.28;;
26303;SDS011;70693;48.680;8.890;2024-02-23T03:29:21;1.00;;;0.40;;
26303;SDS011;70693;48.680;8.890;2024-02-23T03:31:54;0.80;;;0.30;;
26303;SDS011;70693;48.680;8.890;2024-02-23T03:34:23;0.40;;;0.30;;
26303;SDS011;70693;48.680;8.890;2024-02-23T03:36:49;1.40;;;0.40;;
26303;SDS011;70693;48.680;8.890;2024-02-23T03:39:14;0.60;;;0.20;;
26303;SDS011;70693;48.680;8.890;2024-02-23T03:41:40;0.95;;;0.30;;
26303;SDS011;70693;48.680;8.890;2024-02-23T03:44:06;0.68;;;0.32;;
26303;SDS011;70693;48.680;8.890;2024-02-23T03:46:31;2.33;;;0.45;;
26303;SDS011;70693;48.680;8.890;2024-02-23T03:48:57;1.35;;;0.38;;
26303;SDS011;70693;48.680;8.890;2024-02-23T03:51:23;0.55;;;0.25;;
26303;SDS011;70693;48.680;8.890;2024-02-23T03:53:49;0.75;;;0.25;;
26303;SDS011;70693;48.680;8.890;2024-02-23T03:56:15;1.20;;;0.43;;
26303;SDS011;70693;48.680;8.890;2024-02-23T03:58:41;0.55;;;0.20;;
26303;SDS011;70693;48.680;8.890;2024-02-23T04:01:07;1.70;;;0.40;;
26303;SDS011;70693;48.680;8.890;2024-02-23T04:03:32;0.65;;;0.20;;
26303;SDS011;70693;48.680;8.890;2024-02-23T04:05:58;0.73;;;0.32;;
26303;SDS011;70693;48.680;8.890;2024-02-23T04:08:24;1.58;;;0.43;;
26303;SDS011;70693;48.680;8.890;2024-02-23T04:10:49;1.42;;;0.40;;
26303;SDS011;70693;48.680;8.890;2024-02-23T04:13:15;0.65;;;0.30;;
26303;SDS011;70693;48.680;8.890;2024-02-23T04:15:42;0.30;;;0.20;;
26303;SDS011;70693;48.680;8.890;2024-02-23T04:18:08;0.95;;;0.20;;
26303;SDS011;70693;48.680;8.890;2024-02-23T04:20:34;0.60;;;0.30;;
26303;SDS011;70693;48.680;8.890;2024-02-23T04:23:00;1.50;;;0.40;;
26303;SDS011;70693;48.680;8.890;2024-02-23T04:25:25;1.77;;;0.45;;
26303;SDS011;70693;48.680;8.890;2024-02-23T04:27:51;0.50;;;0.22;;
26303;SDS011;70693;48.680;8.890;2024-02-23T04:30:17;1.08;;;0.30;;
26303;SDS011;70693;48.680;8.890;2024-02-23T04:32:42;0.63;;;0.30;;
26303;SDS011;70693;48.680;8.890;2024-02-23T04:35:09;1.00;;;0.40;;
26303;SDS011;70693;48.680;8.890;2024-02-23T04:37:35;2.50;;;0.60;;
26303;SDS011;70693;48.680;8.890;2024-02-23T04:40:00;1.33;;;0.40;;
26303;SDS011;70693;48.680;8.890;2024-02-23T04:42:26;0.77;;;0.30;;
26303;SDS011;70693;48.680;8.890;2024-02-23T04:44:52;2.00;;;0.50;;
26303;SDS011;70693;48.680;8.890;2024-02-23T04:47:20;0.40;;;0.22;;
26303;SDS011;70693;48.680;8.890;2024-02-23T04:49:46;0.65;;;0.20;;
26303;SDS011;70693;48.680;8.890;2024-02-23T04:52:11;0.82;;;0.40;;
26303;SDS011;70693;48.680;8.890;2024-02-23T04:54:37;2.08;;;0.30;;
26303;SDS011;70693;48.680;8.890;2024-02-23T04:57:03;1.05;;;0.43;;
26303;SDS011;70693;48.680;8.890;2024-02-23T04:59:29;1.02;;;0.35;;
26303;SDS011;70693;48.680;8.890;2024-02-23T05:01:56;1.02;;;0.30;;
26303;SDS011;70693;48.680;8.890;2024-02-23T05:04:22;0.85;;;0.30;;
26303;SDS011;70693;48.680;8.890;2024-02-23T05:06:48;1.95;;;0.40;;
26303;SDS011;70693;48.680;8.890;2024-02-23T05:09:13;2.50;;;0.40;;
26303;SDS011;70693;48.680;8.890;2024-02-23T05:11:39;1.00;;;0.30;;
26303;SDS011;70693;48.680;8.890;2024-02-23T05:14:05;0.77;;;0.32;;
26303;SDS011;70693;48.680;8.890;2024-02-23T05:16:31;0.63;;;0.32;;
26303;SDS011;70693;48.680;8.890;2024-02-23T05:18:56;0.47;;;0.30;;
26303;SDS011;70693;48.680;8.890;2024-02-23T05:21:22;0.75;;;0.30;;
26303;SDS011;70693;48.680;8.890;2024-02-23T05:23:48;1.45;;;0.45;;
26303;SDS011;70693;48.680;8.890;2024-02-23T05:26:13;0.88;;;0.47;;
26303;SDS011;70693;48.680;8.890;2024-02-23T05:28:39;0.98;;;0.30;;
26303;SDS011;70693;48.680;8.890;2024-02-23T05:31:04;0.73;;;0.22;;
26303;SDS011;70693;48.680;8.890;2024-02-23T05:33:30;0.75;;;0.30;;
26303;SDS011;70693;48.680;8.890;2024-02-23T05:35:56;1.17;;;0.40;;
26303;SDS011;70693;48.680;8.890;2024-02-23T05:38:21;1.05;;;0.40;;
26303;SDS011;70693;48.680;8.890;2024-02-23T05:40:47;1.50;;;0.60;;
26303;SDS011;70693;48.680;8.890;2024-02-23T05:43:13;0.65;;;0.10;;
26303;SDS011;70693;48.680;8.890;2024-02-23T05:45:39;1.00;;;0.40;;
26303;SDS011;70693;48.680;8.890;2024-02-23T05:48:05;2.28;;;0.30;;
26303;SDS011;70693;48.680;8.890;2024-02-23T05:50:31;1.33;;;0.52;;
26303;SDS011;70693;48.680;8.890;2024-02-23T05:52:57;1.40;;;0.52;;
26303;SDS011;70693;48.680;8.890;2024-02-23T05:55:23;3.63;;;0.68;;
26303;SDS011;70693;48.680;8.890;2024-02-23T05:57:49;1.55;;;0.60;;
26303;SDS011;70693;48.680;8.890;2024-02-23T06:00:15;2.88;;;0.98;;
26303;SDS011;70693;48.680;8.890;2024-02-23T06:02:44;1.77;;;0.80;;
26303;SDS011;70693;48.680;8.890;2024-02-23T06:05:11;1.98;;;0.60;;
26303;SDS011;70693;48.680;8.890;2024-02-23T06:07:37;1.48;;;0.70;;
26303;SDS011;70693;48.680;8.890;2024-02-23T06:10:02;1.23;;;0.80;;
26303;SDS011;70693;48.680;8.890;2024-02-23T06:12:29;1.02;;;0.50;;
26303;SDS011;70693;48.680;8.890;2024-02-23T06:14:54;1.00;;;0.43;;
26303;SDS011;70693;48.680;8.890;2024-02-23T06:17:23;0.93;;;0.50;;
26303;SDS011;70693;48.680;8.890;2024-02-23T06:19:49;1.63;;;0.80;;
26303;SDS011;70693;48.680;8.890;2024-02-23T06:22:17;1.02;;;0.55;;
26303;SDS011;70693;48.680;8.890;2024-02-23T06:24:46;2.40;;;0.80;;
26303;SDS011;70693;48.680;8.890;2024-02-23T06:27:12;0.98;;;0.50;;
26303;SDS011;70693;48.680;8.890;2024-02-23T06:29:37;1.90;;;0.60;;
26303;SDS011;70693;48.680;8.890;2024-02-23T06:32:03;2.25;;;0.80;;
26303;SDS011;70693;48.680;8.890;2024-02-23T06:34:29;2.13;;;1.27;;
26303;SDS011;70693;48.680;8.890;2024-02-23T06:36:55;3.22;;;1.65;;
26303;SDS011;70693;48.680;8.890;2024-02-23T06:39:20;2.63;;;1.40;;
26303;SDS011;70693;48.680;8.890;2024-02-23T06:41:46;2.83;;;1.38;;
26303;SDS011;70693;48.680;8.890;2024-02-23T06:44:12;1.88;;;1.00;;
26303;SDS011;70693;48.680;8.890;2024-02-23T06:46:37;3.30;;;1.20;;
26303;SDS011;70693;48.680;8.890;2024-02-23T06:49:03;1.95;;;1.10;;
26303;SDS011;70693;48.680;8.890;2024-02-23T06:51:29;2.30;;;1.00;;
26303;SDS011;70693;48.680;8.890;2024-02-23T06:53:56;2.10;;;1.23;;
26303;SDS011;70693;48.680;8.890;2024-02-23T06:56:22;2.17;;;1.20;;
26303;SDS011;70693;48.680;8.890;2024-02-23T06:58:48;3.95;;;1.33;;
26303;SDS011;70693;48.680;8.890;2024-02-23T07:01:14;2.60;;;1.10;;
26303;SDS011;70693;48.680;8.890;2024-02-23T07:03:39;2.33;;;1.30;;
26303;SDS011;70693;48.680;8.890;2024-02-23T07:06:07;2.45;;;1.10;;
26303;SDS011;70693;48.680;8.890;2024-02-23T07:08:35;3.80;;;1.10;;
26303;SDS011;70693;48.680;8.890;2024-02-23T07:11:00;1.92;;;1.05;;
26303;SDS011;70693;48.680;8.890;2024-02-23T07:13:26;1.25;;;0.93;;
26303;SDS011;70693;48.680;8.890;2024-02-23T07:15:52;1.55;;;1.00;;
26303;SDS011;70693;48.680;8.890;2024-02-23T07:18:17;1.92;;;0.90;;
26303;SDS011;70693;48.680;8.890;2024-02-23T07:20:43;1.73;;;0.90;;
26303;SDS011;70693;48.680;8.890;2024-02-23T07:23:08;1.65;;;0.88;;
26303;SDS011;70693;48.680;8.890;2024-02-23T07:25:34;1.42;;;0.90;;
26303;SDS011;70693;48.680;8.890;2024-02-23T07:28:00;2.30;;;1.00;;
26303;SDS011;70693;48.680;8.890;2024-02-23T07:30:26;2.65;;;1.13;;
26303;SDS011;70693;48.680;8.890;2024-02-23T07:32:51;1.75;;;1.00;;
26303;SDS011;70693;48.680;8.890;2024-02-23T07:35:17;1.23;;;0.80;;
26303;SDS011;70693;48.680;8.890;2024-02-23T07:37:43;1.35;;;0.77;;
26303;SDS011;70693;48.680;8.890;2024-02-23T07:40:08;1.75;;;0.85;;
26303;SDS011;70693;48.680;8.890;2024-02-23T07:42:34;1.45;;;0.70;;
26303;SDS011;70693;48.680;8.890;2024-02-23T07:45:02;1.45;;;0.85;;
26303;SDS011;70693;48.680;8.890;2024-02-23T07:47:29;1.15;;;0.70;;
26303;SDS011;70693;48.680;8.890;2024-02-23T07:49:58;1.80;;;0.70;;
26303;SDS011;70693;48.680;8.890;2024-02-23T07:52:24;1.15;;;0.73;;
26303;SDS011;70693;48.680;8.890;2024-02-23T07:54:51;2.50;;;1.08;;
26303;SDS011;70693;48.680;8.890;2024-02-23T07:57:20;1.10;;;0.73;;
26303;SDS011;70693;48.680;8.890;2024-02-23T07:59:46;1.80;;;0.70;;
26303;SDS011;70693;48.680;8.890;2024-02-23T08:02:13;2.50;;;1.15;;
26303;SDS011;70693;48.680;8.890;2024-02-23T08:04:39;3.55;;;1.75;;
26303;SDS011;70693;48.680;8.890;2024-02-23T08:07:05;2.15;;;1.55;;
26303;SDS011;70693;48.680;8.890;2024-02-23T08:09:31;2.30;;;1.30;;
26303;SDS011;70693;48.680;8.890;2024-02-23T08:11:57;2.28;;;1.10;;
26303;SDS011;70693;48.680;8.890;2024-02-23T08:14:23;2.22;;;1.02;;
26303;SDS011;70693;48.680;8.890;2024-02-23T08:16:48;3.80;;;1.00;;
26303;SDS011;70693;48.680;8.890;2024-02-23T08:19:15;1.92;;;1.20;;
26303;SDS011;70693;48.680;8.890;2024-02-23T08:21:40;1.27;;;1.00;;
26303;SDS011;70693;48.680;8.890;2024-02-23T08:24:06;1.35;;;0.90;;
26303;SDS011;70693;48.680;8.890;2024-02-23T08:26:32;1.88;;;1.10;;
26303;SDS011;70693;48.680;8.890;2024-02-23T08:28:58;1.15;;;0.90;;
26303;SDS011;70693;48.680;8.890;2024-02-23T08:31:24;2.30;;;1.08;;
26303;SDS011;70693;48.680;8.890;2024-02-23T08:33:50;1.45;;;1.00;;
26303;SDS011;70693;48.680;8.890;2024-02-23T08:36:16;1.83;;;1.05;;
26303;SDS011;70693;48.680;8.890;2024-02-23T08:38:41;3.17;;;1.00;;
26303;SDS011;70693;48.680;8.890;2024-02-23T08:41:07;2.45;;;1.10;;
26303;SDS011;70693;48.680;8.890;2024-02-23T08:43:33;1.33;;;0.75;;
26303;SDS011;70693;48.680;8.890;2024-02-23T08:45:59;2.00;;;1.00;;
26303;SDS011;70693;48.680;8.890;2024-02-23T08:48:25;1.95;;;0.95;;
26303;SDS011;70693;48.680;8.890;2024-02-23T08:50:50;2.75;;;1.00;;
26303;SDS011;70693;48.680;8.890;2024-02-23T08:53:16;1.70;;;0.90;;
26303;SDS011;70693;48.680;8.890;2024-02-23T08:55:42;1.92;;;0.82;;
26303;SDS011;70693;48.680;8.890;2024-02-23T08:58:07;1.67;;;0.68;;
26303;SDS011;70693;48.680;8.890;2024-02-23T09:00:34;3.42;;;0.82;;
26303;SDS011;70693;48.680;8.890;2024-02-23T09:03:02;4.35;;;1.15;;
26303;SDS011;70693;48.680;8.890;2024-02-23T09:05:27;4.13;;;1.45;;
26303;SDS011;70693;48.680;8.890;2024-02-23T09:07:53;4.03;;;1.67;;
26303;SDS011;70693;48.680;8.890;2024-02-23T09:10:19;5.05;;;0.93;;
26303;SDS011;70693;48.680;8.890;2024-02-23T09:12:45;5.22;;;0.98;;
26303;SDS011;70693;48.680;8.890;2024-02-23T09:15:10;3.03;;;0.73;;
26303;SDS011;70693;48.680;8.890;2024-02-23T09:17:36;2.40;;;0.68;;
26303;SDS011;70693;48.680;8.890;2024-02-23T09:20:02;2.50;;;0.80;;
26303;SDS011;70693;48.680;8.890;2024-02-23T09:22:28;2.80;;;0.70;;
26303;SDS011;70693;48.680;8.890;2024-02-23T09:24:54;3.45;;;0.70;;
26303;SDS011;70693;48.680;8.890;2024-02-23T09:27:21;3.50;;;0.82;;
26303;SDS011;70693;48.680;8.890;2024-02-23T09:29:46;2.80;;;0.60;;
26303;SDS011;70693;48.680;8.890;2024-02-23T09:32:12;2.05;;;0.77;;
26303;SDS011;70693;48.680;8.890;2024-02-23T09:34:38;4.57;;;1.15;;
26303;SDS011;70693;48.680;8.890;2024-02-23T09:37:03;1.70;;;0.65;;
26303;SDS011;70693;48.680;8.890;2024-02-23T09:39:29;1.33;;;0.70;;
26303;SDS011;70693;48.680;8.890;2024-02-23T09:41:55;1.42;;;0.70;;
26303;SDS011;70693;48.680;8.890;2024-02-23T09:44:22;3.50;;;0.98;;
26303;SDS011;70693;48.680;8.890;2024-02-23T09:46:48;1.98;;;0.63;;
26303;SDS011;70693;48.680;8.890;2024-02-23T09:49:17;1.80;;;0.70;;
26303;SDS011;70693;48.680;8.890;2024-02-23T09:51:43;2.63;;;0.82;;
26303;SDS011;70693;48.680;8.890;2024-02-23T09:54:09;1.88;;;0.80;;
26303;SDS011;70693;48.680;8.890;2024-02-23T09:56:35;2.88;;;0.70;;
26303;SDS011;70693;48.680;8.890;2024-02-23T09:59:02;2.92;;;0.80;;
26303;SDS011;70693;48.680;8.890;2024-02-23T10:01:29;2.03;;;0.70;;
26303;SDS011;70693;48.680;8.890;2024-02-23T10:03:57;2.80;;;0.70;;
26303;SDS011;70693;48.680;8.890;2024-02-23T10:06:27;3.05;;;0.45;;
26303;SDS011;70693;48.680;8.890;2024-02-23T10:08:52;3.08;;;0.80;;
26303;SDS011;70693;48.680;8.890;2024-02-23T10:11:21;2.20;;;0.80;;
26303;SDS011;70693;48.680;8.890;2024-02-23T10:13:48;3.30;;;1.08;;
26303;SDS011;70693;48.680;8.890;2024-02-23T10:16:20;4.63;;;1.30;;
26303;SDS011;70693;48.680;8.890;2024-02-23T10:18:47;1.98;;;0.90;;
26303;SDS011;70693;48.680;8.890;2024-02-23T10:21:16;2.08;;;0.80;;
26303;SDS011;70693;48.680;8.890;2024-02-23T10:23:43;3.35;;;1.00;;
26303;SDS011;70693;48.680;8.890;2024-02-23T10:26:10;3.03;;;1.13;;
26303;SDS011;70693;48.680;8.890;2024-02-23T10:28:39;3.58;;;1.00;;
26303;SDS011;70693;48.680;8.890;2024-02-23T10:31:07;3.42;;;0.98;;
26303;SDS011;70693;48.680;8.890;2024-02-23T10:33:33;4.35;;;0.95;;
26303;SDS011;70693;48.680;8.890;2024-02-23T10:36:00;4.75;;;0.90;;
26303;SDS011;70693;48.680;8.890;2024-02-23T10:38:28;2.50;;;0.75;;
26303;SDS011;70693;48.680;8.890;2024-02-23T10:40:57;2.50;;;0.85;;
26303;SDS011;70693;48.680;8.890;2024-02-23T10:43:27;2.17;;;0.90;;
26303;SDS011;70693;48.680;8.890;2024-02-23T10:45:58;2.50;;;0.85;;
26303;SDS011;70693;48.680;8.890;2024-02-23T10:48:27;2.45;;;0.80;;
26303;SDS011;70693;48.680;8.890;2024-02-23T10:50:53;3.83;;;1.08;;
26303;SDS011;70693;48.680;8.890;2024-02-23T10:53:21;4.10;;;0.82;;
26303;SDS011;70693;48.680;8.890;2024-02-23T10:55:52;3.45;;;1.00;;
26303;SDS011;70693;48.680;8.890;2024-02-23T10:58:23;6.22;;;1.35;;
26303;SDS011;70693;48.680;8.890;2024-02-23T11:00:49;4.15;;;1.13;;
26303;SDS011;70693;48.680;8.890;2024-02-23T11:03:14;6.18;;;1.20;;
26303;SDS011;70693;48.680;8.890;2024-02-23T11:05:40;4.72;;;0.90;;
26303;SDS011;70693;48.680;8.890;2024-02-23T11:08:06;1.90;;;0.60;;
26303;SDS011;70693;48.680;8.890;2024-02-23T11:10:41;4.22;;;0.93;;
26303;SDS011;70693;48.680;8.890;2024-02-23T11:13:07;2.67;;;0.80;;
26303;SDS011;70693;48.680;8.890;2024-02-23T11:15:33;2.80;;;0.80;;
26303;SDS011;70693;48.680;8.890;2024-02-23T11:18:20;4.57;;;1.00;;
26303;SDS011;70693;48.680;8.890;2024-02-23T11:21:00;2.80;;;0.77;;
26303;SDS011;70693;48.680;8.890;2024-02-23T11:23:42;3.97;;;1.00;;
26303;SDS011;70693;48.680;8.890;2024-02-23T11:26:17;2.67;;;0.70;;
26303;SDS011;70693;48.680;8.890;2024-02-23T11:28:49;4.38;;;0.90;;
26303;SDS011;70693;48.680;8.890;2024-02-23T11:31:22;2.33;;;0.80;;
26303;SDS011;70693;48.680;8.890;2024-02-23T11:33:52;2.13;;;0.80;;
26303;SDS011;70693;48.680;8.890;2024-02-23T11:36:34;2.20;;;0.82;;
26303;SDS011;70693;48.680;8.890;2024-02-23T11:39:01;2.50;;;0.90;;
26303;SDS011;70693;48.680;8.890;2024-02-23T11:41:28;1.85;;;0.65;;
26303;SDS011;70693;48.680;8.890;2024-02-23T11:43:55;3.17;;;1.13;;
26303;SDS011;70693;48.680;8.890;2024-02-23T11:46:22;2.35;;;0.75;;
26303;SDS011;70693;48.680;8.890;2024-02-23T11:48:48;3.00;;;0.88;;
26303;SDS011;70693;48.680;8.890;2024-02-23T11:51:22;3.08;;;0.80;;
26303;SDS011;70693;48.680;8.890;2024-02-23T11:53:48;1.75;;;0.60;;
26303;SDS011;70693;48.680;8.890;2024-02-23T11:56:15;1.60;;;0.60;;
26303;SDS011;70693;48.680;8.890;2024-02-23T11:58:41;2.78;;;0.90;;
26303;SDS011;70693;48.680;8.890;2024-02-23T12:01:07;1.98;;;0.82;;
26303;SDS011;70693;48.680;8.890;2024-02-23T12:03:33;2.67;;;0.80;;
26303;SDS011;70693;48.680;8.890;2024-02-23T12:06:02;1.25;;;0.57;;
26303;SDS011;70693;48.680;8.890;2024-02-23T12:08:30;2.47;;;0.68;;
26303;SDS011;70693;48.680;8.890;2024-02-23T12:13:33;2.30;;;0.75;;
26303;SDS011;70693;48.680;8.890;2024-02-23T12:16:02;1.25;;;0.60;;
26303;SDS011;70693;48.680;8.890;2024-02-23T12:18:29;3.15;;;0.90;;
26303;SDS011;70693;48.680;8.890;2024-02-23T12:21:01;2.53;;;0.73;;
26303;SDS011;70693;48.680;8.890;2024-02-23T12:23:42;2.83;;;0.60;;
26303;SDS011;70693;48.680;8.890;2024-02-23T12:26:08;2.25;;;0.70;;
26303;SDS011;70693;48.680;8.890;2024-02-23T12:28:35;2.25;;;0.73;;
26303;SDS011;70693;48.680;8.890;2024-02-23T12:31:04;2.15;;;0.80;;
26303;SDS011;70693;48.680;8.890;2024-02-23T12:33:31;1.55;;;0.60;;
26303;SDS011;70693;48.680;8.890;2024-02-23T12:35:59;1.13;;;0.50;;
26303;SDS011;70693;48.680;8.890;2024-02-23T12:38:25;3.80;;;0.60;;
26303;SDS011;70693;48.680;8.890;2024-02-23T12:40:51;1.27;;;0.65;;
26303;SDS011;70693;48.680;8.890;2024-02-23T12:43:17;2.13;;;0.80;;
26303;SDS011;70693;48.680;8.890;2024-02-23T12:45:43;2.15;;;0.57;;
26303;SDS011;70693;48.680;8.890;2024-02-23T12:48:14;3.10;;;0.65;;
26303;SDS011;70693;48.680;8.890;2024-02-23T12:50:43;1.17;;;0.60;;
26303;SDS011;70693;48.680;8.890;2024-02-23T12:53:10;1.42;;;0.60;;
26303;SDS011;70693;48.680;8.890;2024-02-23T12:55:56;2.10;;;0.80;;
26303;SDS011;70693;48.680;8.890;2024-02-23T12:58:22;1.85;;;0.60;;
26303;SDS011;70693;48.680;8.890;2024-02-23T13:00:47;1.70;;;0.70;;
26303;SDS011;70693;48.680;8.890;2024-02-23T13:03:13;1.92;;;0.70;;
26303;SDS011;70693;48.680;8.890;2024-02-23T13:05:39;2.17;;;0.70;;
26303;SDS011;70693;48.680;8.890;2024-02-23T13:08:04;2.17;;;0.70;;
26303;SDS011;70693;48.680;8.890;2024-02-23T13:10:30;1.77;;;0.65;;
26303;SDS011;70693;48.680;8.890;2024-02-23T13:12:56;2.13;;;0.65;;
26303;SDS011;70693;48.680;8.890;2024-02-23T13:15:22;1.73;;;0.70;;
26303;SDS011;70693;48.680;8.890;2024-02-23T13:17:47;2.00;;;0.75;;
26303;SDS011;70693;48.680;8.890;2024-02-23T13:20:13;1.83;;;0.77;;
26303;SDS011;70693;48.680;8.890;2024-02-23T13:22:39;1.92;;;0.90;;
26303;SDS011;70693;48.680;8.890;2024-02-23T13:25:05;1.95;;;0.80;;
26303;SDS011;70693;48.680;8.890;2024-02-23T13:27:31;2.50;;;0.80;;
26303;SDS011;70693;48.680;8.890;2024-02-23T13:29:56;2.20;;;0.88;;
26303;SDS011;70693;48.680;8.890;2024-02-23T13:32:23;1.42;;;0.80;;
26303;SDS011;70693;48.680;8.890;2024-02-23T13:34:49;1.42;;;0.80;;
26303;SDS011;70693;48.680;8.890;2024-02-23T13:37:17;2.38;;;0.90;;
26303;SDS011;70693;48.680;8.890;2024-02-23T13:39:43;1.88;;;0.63;;
26303;SDS011;70693;48.680;8.890;2024-02-23T13:42:09;0.90;;;0.55;;
26303;SDS011;70693;48.680;8.890;2024-02-23T13:44:35;1.98;;;0.75;;
26303;SDS011;70693;48.680;8.890;2024-02-23T13:47:01;1.92;;;0.63;;
26303;SDS011;70693;48.680;8.890;2024-02-23T13:49:27;2.25;;;0.73;;
26303;SDS011;70693;48.680;8.890;2024-02-23T13:51:53;1.27;;;0.70;;
26303;SDS011;70693;48.680;8.890;2024-02-23T13:54:20;1.30;;;0.60;;
26303;SDS011;70693;48.680;8.890;2024-02-23T13:56:45;2.25;;;0.80;;
26303;SDS011;70693;48.680;8.890;2024-02-23T13:59:12;3.72;;;0.88;;
26303;SDS011;70693;48.680;8.890;2024-02-23T14:01:38;1.35;;;0.63;;
26303;SDS011;70693;48.680;8.890;2024-02-23T14:04:05;1.20;;;0.55;;
26303;SDS011;70693;48.680;8.890;2024-02-23T14:06:32;1.08;;;0.60;;
26303;SDS011;70693;48.680;8.890;2024-02-23T14:08:58;1.02;;;0.40;;
26303;SDS011;70693;48.680;8.890;2024-02-23T14:11:23;2.15;;;0.70;;
26303;SDS011;70693;48.680;8.890;2024-02-23T14:13:50;2.83;;;0.75;;
26303;SDS011;70693;48.680;8.890;2024-02-23T14:16:16;1.42;;;0.60;;
26303;SDS011;70693;48.680;8.890;2024-02-23T14:18:41;1.67;;;0.50;;
26303;SDS011;70693;48.680;8.890;2024-02-23T14:21:09;1.15;;;0.50;;
26303;SDS011;70693;48.680;8.890;2024-02-23T14:23:35;1.80;;;0.70;;
26303;SDS011;70693;48.680;8.890;2024-02-23T14:26:02;2.33;;;0.82;;
26303;SDS011;70693;48.680;8.890;2024-02-23T14:28:28;1.85;;;0.70;;
26303;SDS011;70693;48.680;8.890;2024-02-23T14:30:54;1.95;;;0.70;;
26303;SDS011;70693;48.680;8.890;2024-02-23T14:33:20;2.05;;;0.68;;
26303;SDS011;70693;48.680;8.890;2024-02-23T14:35:46;1.88;;;0.80;;
26303;SDS011;70693;48.680;8.890;2024-02-23T14:38:12;1.88;;;0.70;;
26303;SDS011;70693;48.680;8.890;2024-02-23T14:40:37;2.53;;;0.77;;
26303;SDS011;70693;48.680;8.890;2024-02-23T14:43:04;1.50;;;0.80;;
26303;SDS011;70693;48.680;8.890;2024-02-23T14:45:30;2.38;;;0.60;;
26303;SDS011;70693;48.680;8.890;2024-02-23T14:47:56;1.83;;;0.60;;